createdAt,value
2022-07-26T00:00:16.363Z,98.57
2022-07-26T00:01:16.421Z,98.67
2022-07-26T00:02:18.496Z,98.42
2022-07-26T00:03:16.318Z,98.17
2022-07-26T00:04:16.395Z,98.37
2022-07-26T00:05:16.284Z,98.37
2022-07-26T00:06:16.284Z,98.27
2022-07-26T00:07:16.299Z,97.47
2022-07-26T00:08:16.254Z,97.12
2022-07-26T00:09:16.252Z,97.02
2022-07-26T00:10:16.334Z,96.92
2022-07-26T00:11:16.220Z,97.22
2022-07-26T00:12:16.248Z,96.72
2022-07-26T00:13:16.213Z,96.32
2022-07-26T00:14:16.306Z,96.52
2022-07-26T00:15:16.215Z,95.72
2022-07-26T00:16:16.385Z,95.12
2022-07-26T00:17:16.192Z,94.62
2022-07-26T00:18:16.245Z,94.71
2022-07-26T00:19:17.046Z,94.51
2022-07-26T00:20:16.249Z,94.21
2022-07-26T00:21:16.142Z,94.51
2022-07-26T00:22:16.300Z,94.31
2022-07-26T00:23:16.134Z,94.62
2022-07-26T00:24:16.106Z,94.92
2022-07-26T00:25:16.090Z,94.51
2022-07-26T00:26:16.203Z,94.42
2022-07-26T00:27:16.116Z,94.01
2022-07-26T00:28:16.063Z,94.31
2022-07-26T00:29:16.059Z,94.31
2022-07-26T00:30:16.055Z,94.62
2022-07-26T00:31:16.131Z,94.31
2022-07-26T00:32:16.137Z,93.86
2022-07-26T00:33:16.011Z,93.96
2022-07-26T00:34:16.008Z,93.86
2022-07-26T00:35:15.973Z,93.46
2022-07-26T00:36:15.972Z,93.26
2022-07-26T00:37:20.130Z,93.46
2022-07-26T00:38:15.955Z,93.46
2022-07-26T00:39:15.952Z,93.76
2022-07-26T00:40:15.926Z,93.26
2022-07-26T00:41:15.934Z,93.16
2022-07-26T00:42:15.946Z,93.10
2022-07-26T00:43:15.898Z,93.50
2022-07-26T00:44:15.902Z,93.60
2022-07-26T00:45:15.894Z,93.30
2022-07-26T00:46:15.921Z,93.30
2022-07-26T00:47:15.894Z,92.80
2022-07-26T00:48:15.851Z,93.00
2022-07-26T00:49:15.911Z,92.20
2022-07-26T00:50:15.830Z,92.30
2022-07-26T00:51:15.817Z,92.20
2022-07-26T00:52:15.833Z,92.10
2022-07-26T00:53:15.787Z,92.30
2022-07-26T00:54:15.839Z,92.00
2022-07-26T00:55:15.764Z,91.80
2022-07-26T00:56:15.754Z,91.55
2022-07-26T00:57:15.771Z,91.75
2022-07-26T00:58:15.733Z,91.65
2022-07-26T00:59:15.745Z,91.05
2022-07-26T01:00:15.726Z,91.45
2022-07-26T01:01:15.783Z,91.65
2022-07-26T01:02:15.791Z,91.35
2022-07-26T01:03:15.694Z,91.55
2022-07-26T01:04:15.666Z,91.55
2022-07-26T01:05:15.661Z,91.75
2022-07-26T01:06:15.642Z,91.85
2022-07-26T01:07:15.917Z,92.15
2022-07-26T01:08:15.612Z,92.25
2022-07-26T01:09:15.606Z,92.46
2022-07-26T01:10:15.598Z,93.66
2022-07-26T01:11:15.602Z,93.66
2022-07-26T01:12:15.630Z,94.76
2022-07-26T01:13:15.572Z,95.10
2022-07-26T01:14:15.547Z,96.41
2022-07-26T01:15:15.555Z,96.11
2022-07-26T01:16:15.571Z,96.15
2022-07-26T01:17:15.606Z,95.75
2022-07-26T01:18:15.503Z,96.66
2022-07-26T01:19:15.532Z,96.00
2022-07-26T01:20:15.493Z,95.60
2022-07-26T01:21:15.469Z,96.00
2022-07-26T01:22:15.502Z,96.30
2022-07-26T01:23:15.458Z,96.00
2022-07-26T01:24:15.442Z,96.80
2022-07-26T01:25:15.438Z,96.80
2022-07-26T01:26:15.417Z,97.20
2022-07-26T01:27:15.450Z,96.65
2022-07-26T01:28:19.832Z,96.65
2022-07-26T01:29:16.380Z,95.84
2022-07-26T01:30:15.382Z,95.14
2022-07-26T01:31:15.457Z,95.44
2022-07-26T01:32:15.400Z,95.34
2022-07-26T01:33:15.347Z,96.04
2022-07-26T01:34:15.328Z,96.04
2022-07-26T01:35:15.319Z,95.54
2022-07-26T01:36:15.301Z,95.75
2022-07-26T01:37:15.322Z,96.15
2022-07-26T01:38:15.285Z,96.65
2022-07-26T01:39:15.281Z,96.69
2022-07-26T01:40:15.274Z,96.39
2022-07-26T01:41:15.270Z,96.59
2022-07-26T01:42:15.268Z,96.80
2022-07-26T01:43:15.236Z,96.59
2022-07-26T01:44:15.223Z,97.00
2022-07-26T01:45:15.235Z,96.69
2022-07-26T01:46:15.246Z,97.20
2022-07-26T01:47:15.216Z,97.90
2022-07-26T01:48:15.175Z,97.60
2022-07-26T01:49:15.206Z,97.60
2022-07-26T01:50:15.129Z,98.20
2022-07-26T01:51:15.143Z,98.30
2022-07-26T01:52:15.163Z,98.71
2022-07-26T01:53:15.124Z,98.50
2022-07-26T01:54:15.121Z,98.55
2022-07-26T01:55:16.102Z,98.45
2022-07-26T01:56:15.095Z,98.95
2022-07-26T01:57:15.090Z,98.85
2022-07-26T01:58:15.047Z,99.35
2022-07-26T01:59:15.046Z,99.26
2022-07-26T02:00:15.060Z,98.85
2022-07-26T02:01:15.066Z,99.15
2022-07-26T02:02:15.166Z,99.35
2022-07-26T02:03:15.064Z,99.35
2022-07-26T02:04:14.990Z,99.96
2022-07-26T02:05:14.990Z,99.99
2022-07-26T02:06:14.955Z,99.99
2022-07-26T02:07:14.987Z,99.99
2022-07-26T02:08:14.936Z,99.96
2022-07-26T02:09:14.926Z,99.99
2022-07-26T02:10:14.929Z,99.99
2022-07-26T02:11:14.907Z,99.99
2022-07-26T02:12:14.923Z,99.99
2022-07-26T02:13:14.888Z,99.99
2022-07-26T02:14:25.718Z,99.99
2022-07-26T02:15:15.861Z,99.99
2022-07-26T02:16:14.900Z,99.99
2022-07-26T02:17:14.869Z,99.30
2022-07-26T02:18:14.845Z,99.15
2022-07-26T02:19:14.818Z,99.15
2022-07-26T02:20:14.806Z,99.15
2022-07-26T02:21:14.798Z,99.46
2022-07-26T02:22:14.810Z,99.96
2022-07-26T02:23:14.759Z,99.99
2022-07-26T02:24:14.784Z,99.40
2022-07-26T02:25:14.741Z,99.20
2022-07-26T02:26:14.734Z,99.30
2022-07-26T02:27:14.750Z,99.90
2022-07-26T02:28:14.714Z,99.99
2022-07-26T02:29:14.725Z,99.99
2022-07-26T02:30:14.703Z,99.99
2022-07-26T02:31:15.608Z,99.99
2022-07-26T02:32:14.703Z,99.99
2022-07-26T02:33:14.665Z,99.99
2022-07-26T02:34:14.652Z,99.99
2022-07-26T02:35:14.624Z,99.99
2022-07-26T02:36:14.641Z,99.99
2022-07-26T02:37:14.651Z,99.99
2022-07-26T02:38:14.593Z,99.99
2022-07-26T02:39:14.592Z,99.99
2022-07-26T02:40:19.111Z,99.99
2022-07-26T02:41:15.556Z,99.99
2022-07-26T02:42:14.585Z,99.99
2022-07-26T02:43:14.555Z,99.99
2022-07-26T02:44:14.541Z,99.99
2022-07-26T02:45:14.510Z,99.99
2022-07-26T02:46:14.545Z,99.99
2022-07-26T02:47:14.526Z,99.99
2022-07-26T02:48:14.580Z,99.99
2022-07-26T02:49:14.562Z,99.99
2022-07-26T02:50:14.468Z,99.99
2022-07-26T02:51:14.459Z,99.99
2022-07-26T02:52:14.584Z,99.99
2022-07-26T02:53:14.415Z,99.99
2022-07-26T02:54:14.430Z,99.99
2022-07-26T02:55:14.406Z,99.99
2022-07-26T02:56:14.485Z,99.99
2022-07-26T02:57:14.486Z,99.99
2022-07-26T02:58:14.390Z,99.99
2022-07-26T02:59:14.361Z,99.99
2022-07-26T03:00:14.391Z,99.99
2022-07-26T03:01:14.406Z,99.99
2022-07-26T03:02:14.489Z,99.99
2022-07-26T03:03:14.465Z,99.99
2022-07-26T03:04:14.299Z,99.99
2022-07-26T03:05:14.379Z,99.99
2022-07-26T03:06:14.391Z,99.99
2022-07-26T03:07:14.274Z,99.99
2022-07-26T03:08:14.372Z,99.99
2022-07-26T03:09:14.335Z,99.99
2022-07-26T03:10:14.250Z,99.99
2022-07-26T03:11:14.241Z,99.99
2022-07-26T03:12:14.204Z,99.99
2022-07-26T03:13:14.232Z,99.99
2022-07-26T03:14:14.208Z,99.99
2022-07-26T03:15:14.197Z,99.99
2022-07-26T03:16:16.166Z,99.99
2022-07-26T03:17:14.146Z,99.99
2022-07-26T03:18:14.180Z,99.99
2022-07-26T03:19:14.131Z,99.99
2022-07-26T03:20:14.142Z,99.99
2022-07-26T03:21:14.209Z,99.99
2022-07-26T03:22:14.110Z,99.99
2022-07-26T03:23:14.205Z,99.99
2022-07-26T03:24:14.072Z,99.99
2022-07-26T03:25:14.081Z,99.99
2022-07-26T03:26:14.086Z,99.99
2022-07-26T03:27:14.043Z,99.99
2022-07-26T03:28:19.129Z,99.99
2022-07-26T03:29:15.080Z,99.99
2022-07-26T03:30:14.018Z,99.99
2022-07-26T03:31:14.050Z,99.99
2022-07-26T03:32:14.062Z,99.99
2022-07-26T03:33:14.010Z,99.99
2022-07-26T03:34:13.977Z,99.99
2022-07-26T03:35:13.951Z,99.99
2022-07-26T03:36:15.499Z,99.99
2022-07-26T03:37:13.929Z,99.99
2022-07-26T03:38:13.961Z,99.99
2022-07-26T03:39:13.906Z,99.99
2022-07-26T03:40:13.997Z,99.99
2022-07-26T03:41:14.001Z,99.99
2022-07-26T03:42:13.872Z,99.99
2022-07-26T03:43:13.900Z,99.99
2022-07-26T03:44:13.859Z,99.99
2022-07-26T03:45:13.872Z,99.99
2022-07-26T03:46:13.870Z,99.99
2022-07-26T03:47:13.811Z,99.99
2022-07-26T03:48:13.889Z,99.99
2022-07-26T03:49:16.989Z,99.99
2022-07-26T03:50:14.044Z,99.99
2022-07-26T03:51:13.767Z,99.99
2022-07-26T03:52:13.775Z,99.99
2022-07-26T03:53:13.805Z,99.99
2022-07-26T03:54:13.763Z,99.99
2022-07-26T03:55:13.734Z,99.99
2022-07-26T03:56:13.722Z,99.99
2022-07-26T03:57:13.720Z,99.99
2022-07-26T03:58:13.781Z,99.99
2022-07-26T03:59:13.691Z,99.99
2022-07-26T04:00:13.673Z,99.99
2022-07-26T04:01:13.743Z,99.99
2022-07-26T04:02:13.698Z,99.99
2022-07-26T04:03:13.665Z,99.99
2022-07-26T04:04:13.624Z,99.99
2022-07-26T04:05:13.615Z,99.99
2022-07-26T04:06:13.615Z,99.99
2022-07-26T04:07:13.602Z,99.99
2022-07-26T04:08:13.633Z,99.99
2022-07-26T04:09:13.574Z,99.99
2022-07-26T04:10:13.572Z,99.99
2022-07-26T04:11:13.543Z,99.99
2022-07-26T04:12:13.541Z,99.99
2022-07-26T04:13:13.572Z,99.99
2022-07-26T04:14:13.509Z,99.99
2022-07-26T04:15:13.510Z,99.99
2022-07-26T04:16:13.507Z,99.99
2022-07-26T04:17:13.652Z,99.99
2022-07-26T04:18:13.511Z,99.99
2022-07-26T04:19:14.306Z,99.99
2022-07-26T04:20:13.447Z,99.99
2022-07-26T04:21:13.438Z,99.99
2022-07-26T04:22:13.415Z,99.99
2022-07-26T04:23:13.441Z,99.99
2022-07-26T04:24:13.432Z,99.99
2022-07-26T04:25:13.407Z,99.99
2022-07-26T04:26:13.398Z,99.99
2022-07-26T04:27:13.370Z,99.99
2022-07-26T04:28:13.391Z,99.99
2022-07-26T04:29:13.343Z,99.99
2022-07-26T04:30:15.461Z,99.99
2022-07-26T04:31:13.444Z,99.99
2022-07-26T04:32:13.303Z,99.99
2022-07-26T04:33:13.336Z,99.99
2022-07-26T04:34:13.319Z,99.99
2022-07-26T04:35:13.290Z,99.99
2022-07-26T04:36:13.286Z,99.99
2022-07-26T04:37:13.252Z,99.99
2022-07-26T04:38:13.272Z,99.99
2022-07-26T04:39:13.241Z,99.99
2022-07-26T04:40:13.237Z,99.99
2022-07-26T04:41:13.221Z,99.99
2022-07-26T04:42:13.237Z,99.99
2022-07-26T04:43:15.761Z,99.99
2022-07-26T04:44:13.226Z,99.99
2022-07-26T04:45:13.164Z,99.99
2022-07-26T04:46:13.231Z,99.99
2022-07-26T04:47:13.199Z,99.99
2022-07-26T04:48:13.191Z,99.99
2022-07-26T04:49:13.190Z,99.99
2022-07-26T04:50:13.109Z,99.99
2022-07-26T04:51:13.105Z,99.99
2022-07-26T04:52:13.102Z,99.99
2022-07-26T04:53:13.123Z,99.99
2022-07-26T04:54:13.066Z,99.99
2022-07-26T04:55:13.093Z,99.99
2022-07-26T04:56:13.064Z,99.99
2022-07-26T04:57:13.053Z,99.99
2022-07-26T04:58:13.067Z,99.99
2022-07-26T04:59:13.035Z,99.99
2022-07-26T05:00:27.999Z,99.99
2022-07-26T05:01:14.089Z,99.99
2022-07-26T05:02:13.122Z,99.99
2022-07-26T05:03:13.081Z,99.99
2022-07-26T05:04:12.991Z,99.99
2022-07-26T05:05:12.964Z,99.99
2022-07-26T05:06:12.977Z,99.99
2022-07-26T05:07:12.928Z,99.99
2022-07-26T05:08:12.989Z,99.99
2022-07-26T05:09:12.914Z,99.99
2022-07-26T05:10:12.908Z,99.99
2022-07-26T05:11:12.901Z,99.99
2022-07-26T05:12:12.884Z,99.99
2022-07-26T05:13:12.960Z,99.99
2022-07-26T05:14:12.977Z,99.99
2022-07-26T05:15:13.893Z,99.99
2022-07-26T05:16:12.846Z,99.99
2022-07-26T05:17:12.844Z,99.99
2022-07-26T05:18:13.882Z,99.99
2022-07-26T05:19:12.872Z,99.99
2022-07-26T05:20:12.811Z,99.99
2022-07-26T05:21:12.774Z,99.99
2022-07-26T05:22:12.905Z,99.99
2022-07-26T05:23:12.783Z,99.99
2022-07-26T05:24:12.963Z,99.99
2022-07-26T05:25:12.746Z,99.99
2022-07-26T05:26:12.819Z,99.99
2022-07-26T05:27:12.716Z,99.99
2022-07-26T05:28:12.736Z,99.99
2022-07-26T05:29:12.679Z,99.99
2022-07-26T05:30:12.725Z,99.99
2022-07-26T05:31:12.717Z,99.99
2022-07-26T05:32:12.661Z,99.99
2022-07-26T05:33:16.625Z,99.99
2022-07-26T05:34:12.647Z,99.99
2022-07-26T05:35:12.745Z,99.99
2022-07-26T05:36:12.605Z,99.99
2022-07-26T05:37:12.602Z,99.99
2022-07-26T05:38:12.622Z,99.99
2022-07-26T05:39:15.902Z,99.21
2022-07-26T05:40:12.551Z,99.99
2022-07-26T05:41:12.646Z,99.87
2022-07-26T05:42:12.637Z,99.99
2022-07-26T05:43:12.537Z,97.66
2022-07-26T05:44:12.560Z,98.77
2022-07-26T05:45:12.512Z,97.36
2022-07-26T05:46:12.612Z,96.96
2022-07-26T05:47:12.493Z,98.26
2022-07-26T05:48:12.645Z,98.72
2022-07-26T05:49:13.601Z,98.62
2022-07-26T05:50:12.435Z,98.82
2022-07-26T05:51:12.441Z,98.62
2022-07-26T05:52:12.423Z,96.00
2022-07-26T05:53:12.461Z,96.30
2022-07-26T05:54:12.427Z,98.31
2022-07-26T05:55:12.501Z,98.81
2022-07-26T05:56:12.492Z,99.11
2022-07-26T05:57:12.374Z,99.52
2022-07-26T05:58:12.389Z,98.91
2022-07-26T05:59:12.391Z,99.11
2022-07-26T06:00:12.339Z,97.81
2022-07-26T06:01:12.438Z,98.11
2022-07-26T06:02:12.452Z,98.31
2022-07-26T06:03:12.321Z,99.26
2022-07-26T06:04:13.066Z,99.56
2022-07-26T06:05:12.281Z,99.99
2022-07-26T06:06:12.294Z,99.99
2022-07-26T06:07:12.262Z,99.96
2022-07-26T06:08:12.259Z,99.99
2022-07-26T06:09:12.301Z,99.99
2022-07-26T06:10:12.375Z,99.99
2022-07-26T06:11:12.232Z,99.99
2022-07-26T06:12:12.231Z,99.99
2022-07-26T06:13:12.192Z,99.99
2022-07-26T06:14:12.580Z,99.99
2022-07-26T06:15:14.877Z,99.99
2022-07-26T06:16:12.167Z,99.42
2022-07-26T06:17:12.251Z,99.32
2022-07-26T06:18:12.169Z,98.67
2022-07-26T06:19:12.184Z,97.62
2022-07-26T06:20:12.127Z,96.22
2022-07-26T06:21:12.120Z,97.38
2022-07-26T06:22:12.095Z,97.23
2022-07-26T06:23:12.097Z,95.68
2022-07-26T06:24:12.478Z,93.88
2022-07-26T06:25:12.089Z,92.18
2022-07-26T06:26:12.073Z,93.33
2022-07-26T06:27:12.033Z,92.19
2022-07-26T06:28:12.055Z,90.59
2022-07-26T06:29:12.094Z,90.84
2022-07-26T06:30:12.030Z,90.35
2022-07-26T06:31:12.042Z,91.20
2022-07-26T06:32:12.038Z,91.20
2022-07-26T06:33:11.980Z,88.35
2022-07-26T06:34:12.317Z,88.05
2022-07-26T06:35:11.961Z,88.75
2022-07-26T06:36:11.978Z,88.15
2022-07-26T06:37:11.908Z,90.50
2022-07-26T06:38:11.901Z,89.81
2022-07-26T06:39:11.944Z,89.47
2022-07-26T06:40:11.911Z,88.22
2022-07-26T06:41:11.872Z,87.62
2022-07-26T06:42:11.902Z,87.62
2022-07-26T06:43:11.854Z,89.78
2022-07-26T06:44:12.130Z,88.34
2022-07-26T06:45:11.860Z,86.70
2022-07-26T06:46:11.964Z,85.27
2022-07-26T06:47:11.832Z,81.77
2022-07-26T06:48:11.914Z,81.08
2022-07-26T06:49:11.928Z,83.27
2022-07-26T06:50:11.778Z,84.92
2022-07-26T06:51:11.760Z,81.74
2022-07-26T06:52:11.761Z,82.67
2022-07-26T06:53:11.790Z,83.61
2022-07-26T06:54:11.959Z,84.31
2022-07-26T06:55:12.512Z,85.21
2022-07-26T06:56:11.725Z,83.35
2022-07-26T06:57:11.822Z,83.19
2022-07-26T06:58:11.702Z,85.19
2022-07-26T06:59:11.750Z,85.03
2022-07-26T07:00:11.654Z,84.53
2022-07-26T07:01:11.700Z,86.22
2022-07-26T07:02:11.678Z,85.28
2022-07-26T07:03:11.648Z,87.04
2022-07-26T07:04:12.033Z,80.90
2022-07-26T07:05:11.853Z,82.15
2022-07-26T07:06:11.622Z,80.76
2022-07-26T07:07:11.604Z,80.06
2022-07-26T07:08:11.618Z,80.70
2022-07-26T07:09:11.657Z,80.74
2022-07-26T07:10:12.608Z,79.04
2022-07-26T07:11:11.580Z,80.83
2022-07-26T07:12:11.545Z,78.68
2022-07-26T07:13:11.542Z,80.08
2022-07-26T07:14:11.812Z,80.14
2022-07-26T07:15:11.523Z,79.78
2022-07-26T07:16:11.542Z,78.58
2022-07-26T07:17:15.944Z,77.92
2022-07-26T07:18:12.580Z,77.86
2022-07-26T07:19:11.520Z,79.46
2022-07-26T07:20:11.449Z,80.15
2022-07-26T07:21:11.455Z,78.59
2022-07-26T07:22:11.531Z,80.79
2022-07-26T07:23:11.427Z,82.69
2022-07-26T07:24:11.841Z,81.13
2022-07-26T07:25:11.479Z,82.13
2022-07-26T07:26:11.378Z,82.03
2022-07-26T07:27:11.353Z,82.57
2022-07-26T07:28:11.414Z,83.37
2022-07-26T07:29:11.388Z,82.31
2022-07-26T07:30:11.376Z,84.81
2022-07-26T07:31:11.481Z,81.35
2022-07-26T07:32:16.097Z,83.25
2022-07-26T07:33:18.798Z,84.25
2022-07-26T07:34:12.638Z,82.85
2022-07-26T07:35:12.619Z,83.75
2022-07-26T07:36:11.295Z,84.81
2022-07-26T07:37:11.257Z,84.01
2022-07-26T07:38:11.277Z,82.55
2022-07-26T07:39:17.103Z,83.01
2022-07-26T07:40:12.277Z,84.71
2022-07-26T07:41:11.260Z,83.75
2022-07-26T07:42:11.241Z,83.65
2022-07-26T07:43:11.192Z,83.05
2022-07-26T07:44:11.556Z,83.85
2022-07-26T07:45:11.178Z,81.85
2022-07-26T07:46:11.154Z,84.65
2022-07-26T07:47:11.295Z,86.05
2022-07-26T07:48:11.135Z,85.05
2022-07-26T07:49:11.828Z,82.05
2022-07-26T07:50:11.179Z,82.95
2022-07-26T07:51:11.099Z,82.65
2022-07-26T07:52:11.129Z,83.75
2022-07-26T07:53:11.202Z,80.65
2022-07-26T07:54:11.107Z,81.81
2022-07-26T07:55:39.949Z,80.51
2022-07-26T07:56:12.030Z,80.51
2022-07-26T07:57:11.054Z,83.21
2022-07-26T07:58:11.014Z,81.07
2022-07-26T07:59:11.486Z,80.47
2022-07-26T08:00:11.832Z,79.63
2022-07-26T08:01:11.044Z,78.93
2022-07-26T08:02:10.979Z,79.29
2022-07-26T08:03:10.974Z,78.99
2022-07-26T08:04:11.031Z,80.39
2022-07-26T08:05:13.956Z,77.56
2022-07-26T08:06:10.950Z,78.05
2022-07-26T08:07:10.937Z,78.45
2022-07-26T08:08:10.909Z,79.11
2022-07-26T08:09:13.351Z,79.52
2022-07-26T08:10:10.926Z,76.82
2022-07-26T08:11:10.914Z,75.82
2022-07-26T08:12:10.868Z,76.88
2022-07-26T08:13:10.957Z,76.18
2022-07-26T08:14:11.013Z,75.45
2022-07-26T08:15:10.845Z,74.35
2022-07-26T08:16:10.847Z,74.58
2022-07-26T08:17:10.819Z,72.11
2022-07-26T08:18:10.816Z,73.47
2022-07-26T08:19:11.086Z,72.38
2022-07-26T08:20:14.782Z,69.92
2022-07-26T08:21:11.843Z,72.85
2022-07-26T08:22:10.803Z,71.25
2022-07-26T08:23:10.797Z,76.87
2022-07-26T08:24:10.738Z,72.28
2022-07-26T08:25:10.783Z,75.51
2022-07-26T08:26:10.732Z,74.65
2022-07-26T08:27:10.770Z,74.19
2022-07-26T08:28:30.679Z,76.78
2022-07-26T08:29:12.043Z,75.18
2022-07-26T08:30:10.694Z,75.78
2022-07-26T08:31:10.744Z,75.72
2022-07-26T08:32:10.636Z,77.72
2022-07-26T08:33:10.652Z,75.72
2022-07-26T08:34:10.656Z,75.46
2022-07-26T08:35:17.358Z,79.82
2022-07-26T08:36:11.628Z,78.42
2022-07-26T08:37:18.269Z,78.72
2022-07-26T08:38:11.566Z,77.22
2022-07-26T08:39:10.855Z,76.02
2022-07-26T08:40:10.614Z,75.22
2022-07-26T08:41:10.585Z,76.12
2022-07-26T08:42:10.575Z,78.68
2022-07-26T08:43:10.546Z,76.78
2022-07-26T08:44:10.555Z,77.48
2022-07-26T08:45:10.541Z,76.38
2022-07-26T08:46:11.651Z,75.89
2022-07-26T08:47:10.507Z,74.19
2022-07-26T08:48:18.743Z,74.58
2022-07-26T08:49:12.281Z,75.45
2022-07-26T08:50:10.470Z,74.85
2022-07-26T08:51:11.097Z,78.04
2022-07-26T08:52:10.458Z,77.91
2022-07-26T08:53:10.533Z,75.01
2022-07-26T08:54:10.406Z,73.61
2022-07-26T08:55:10.470Z,73.82
2022-07-26T08:56:10.401Z,73.32
2022-07-26T08:57:10.373Z,74.02
2022-07-26T08:58:10.361Z,72.45
2022-07-26T08:59:14.378Z,73.91
2022-07-26T09:00:11.412Z,74.81
2022-07-26T09:01:10.368Z,72.88
2022-07-26T09:02:10.337Z,74.04
2022-07-26T09:03:10.328Z,73.61
2022-07-26T09:04:13.578Z,71.39
2022-07-26T09:05:10.295Z,70.52
2022-07-26T09:06:10.343Z,74.50
2022-07-26T09:07:10.267Z,67.11
2022-07-26T09:08:10.314Z,71.34
2022-07-26T09:09:10.610Z,69.16
2022-07-26T09:10:10.338Z,66.58
2022-07-26T09:11:10.290Z,66.55
2022-07-26T09:12:10.195Z,66.18
2022-07-26T09:13:10.230Z,66.45
2022-07-26T09:14:10.283Z,65.00
2022-07-26T09:15:10.193Z,63.84
2022-07-26T09:16:10.318Z,65.16
2022-07-26T09:17:10.160Z,69.23
2022-07-26T09:18:10.125Z,63.12
2022-07-26T09:19:10.330Z,62.69
2022-07-26T09:20:10.278Z,61.70
2022-07-26T09:21:10.181Z,61.15
2022-07-26T09:22:10.669Z,62.99
2022-07-26T09:23:10.108Z,61.18
2022-07-26T09:24:10.080Z,60.99
2022-07-26T09:25:10.129Z,57.47
2022-07-26T09:26:10.153Z,58.26
2022-07-26T09:27:10.068Z,57.98
2022-07-26T09:28:10.035Z,57.24
2022-07-26T09:29:10.433Z,55.64
2022-07-26T09:30:10.025Z,56.26
2022-07-26T09:31:10.107Z,55.92
2022-07-26T09:32:10.090Z,56.96
2022-07-26T09:33:09.984Z,58.74
2022-07-26T09:34:10.429Z,57.58
2022-07-26T09:35:23.931Z,58.77
2022-07-26T09:36:11.132Z,57.43
2022-07-26T09:37:12.499Z,54.58
2022-07-26T09:38:09.912Z,57.49
2022-07-26T09:39:10.372Z,54.43
2022-07-26T09:40:09.934Z,55.46
2022-07-26T09:41:10.045Z,53.20
2022-07-26T09:43:10.863Z,54.44
2022-07-26T09:44:11.290Z,57.21
2022-07-26T09:45:09.852Z,58.47
2022-07-26T09:46:10.061Z,57.98
2022-07-26T09:47:09.920Z,56.49
2022-07-26T09:48:09.828Z,56.84
2022-07-26T09:49:11.455Z,57.73
2022-07-26T09:50:11.635Z,56.46
2022-07-26T09:51:09.939Z,58.75
2022-07-26T09:52:09.811Z,59.78
2022-07-26T09:53:09.790Z,63.77
2022-07-26T09:54:10.203Z,63.21
2022-07-26T09:55:09.773Z,64.43
2022-07-26T09:56:09.776Z,64.95
2022-07-26T09:57:09.742Z,64.98
2022-07-26T09:58:09.709Z,65.02
2022-07-26T09:59:09.731Z,65.08
2022-07-26T10:00:09.693Z,65.21
2022-07-26T10:01:09.726Z,66.44
2022-07-26T10:02:09.746Z,66.20
2022-07-26T10:03:09.726Z,64.75
2022-07-26T10:04:09.949Z,66.24
2022-07-26T10:05:09.660Z,65.44
2022-07-26T10:06:09.669Z,66.37
2022-07-26T10:07:09.630Z,67.07
2022-07-26T10:08:09.635Z,67.57
2022-07-26T10:09:09.607Z,68.37
2022-07-26T10:10:09.580Z,68.00
2022-07-26T10:11:09.663Z,68.93
2022-07-26T10:12:09.566Z,69.23
2022-07-26T10:13:09.556Z,70.06
2022-07-26T10:14:09.774Z,71.45
2022-07-26T10:15:09.512Z,70.56
2022-07-26T10:16:09.583Z,69.59
2022-07-26T10:17:10.529Z,71.03
2022-07-26T10:18:09.508Z,72.02
2022-07-26T10:19:10.569Z,73.52
2022-07-26T10:20:16.882Z,72.42
2022-07-26T10:21:10.501Z,72.06
2022-07-26T10:22:09.463Z,74.16
2022-07-26T10:23:09.477Z,72.76
2022-07-26T10:24:09.697Z,72.56
2022-07-26T10:25:09.418Z,73.06
2022-07-26T10:26:09.912Z,73.96
2022-07-26T10:27:09.397Z,72.62
2022-07-26T10:28:11.781Z,72.02
2022-07-26T10:29:09.380Z,71.33
2022-07-26T10:30:09.385Z,70.83
2022-07-26T10:31:09.428Z,71.49
2022-07-26T10:32:09.373Z,71.06
2022-07-26T10:33:09.338Z,70.16
2022-07-26T10:34:09.682Z,69.43
2022-07-26T10:35:09.306Z,70.69
2022-07-26T10:36:09.317Z,67.90
2022-07-26T10:37:09.311Z,67.66
2022-07-26T10:38:09.471Z,68.07
2022-07-26T10:39:09.387Z,67.93
2022-07-26T10:40:09.234Z,69.09
2022-07-26T10:41:09.305Z,65.48
2022-07-26T10:42:09.196Z,64.62
2022-07-26T10:43:37.754Z,66.15
2022-07-26T10:44:10.537Z,64.43
2022-07-26T10:45:09.203Z,61.75
2022-07-26T10:46:09.243Z,64.86
2022-07-26T10:47:09.305Z,61.83
2022-07-26T10:48:09.242Z,57.88
2022-07-26T10:49:09.253Z,59.56
2022-07-26T10:50:09.170Z,58.54
2022-07-26T10:51:09.110Z,58.28
2022-07-26T10:52:09.169Z,56.92
2022-07-26T10:53:09.113Z,58.90
2022-07-26T10:54:09.694Z,59.59
2022-07-26T10:55:09.104Z,58.20
2022-07-26T10:56:09.080Z,57.58
2022-07-26T10:57:09.130Z,59.63
2022-07-26T10:58:09.151Z,56.74
2022-07-26T10:59:09.035Z,54.96
2022-07-26T11:00:09.071Z,58.39
2022-07-26T11:01:09.121Z,55.27
2022-07-26T11:02:09.092Z,55.05
2022-07-26T11:03:09.045Z,53.25
2022-07-26T11:04:10.247Z,54.82
2022-07-26T11:05:09.021Z,51.10
2022-07-26T11:06:08.966Z,55.91
2022-07-26T11:07:09.016Z,50.76
2022-07-26T11:08:08.978Z,50.21
2022-07-26T11:09:08.987Z,54.69
2022-07-26T11:10:08.984Z,55.60
2022-07-26T11:11:08.956Z,53.52
2022-07-26T11:12:08.992Z,54.71
2022-07-26T11:13:08.920Z,56.23
2022-07-26T11:14:09.357Z,52.85
2022-07-26T11:15:08.905Z,50.42
2022-07-26T11:16:08.918Z,49.24
2022-07-26T11:17:08.953Z,45.37
2022-07-26T11:18:08.878Z,45.32
2022-07-26T11:19:08.823Z,46.89
2022-07-26T11:20:08.851Z,42.13
2022-07-26T11:21:08.865Z,46.48
2022-07-26T11:22:08.882Z,45.25
2022-07-26T11:23:08.843Z,39.88
2022-07-26T11:24:09.252Z,44.96
2022-07-26T11:25:08.798Z,40.86
2022-07-26T11:26:08.795Z,43.42
2022-07-26T11:27:08.856Z,42.99
2022-07-26T11:28:08.782Z,43.04
2022-07-26T11:29:08.725Z,42.34
2022-07-26T11:30:08.756Z,41.41
2022-07-26T11:31:08.765Z,39.92
2022-07-26T11:32:14.817Z,44.70
2022-07-26T11:33:09.736Z,44.45
2022-07-26T11:34:08.964Z,44.85
2022-07-26T11:35:08.694Z,46.08
2022-07-26T11:36:08.701Z,49.08
2022-07-26T11:37:08.694Z,46.18
2022-07-26T11:38:12.189Z,46.58
2022-07-26T11:39:08.672Z,45.40
2022-07-26T11:40:08.653Z,44.74
2022-07-26T11:41:08.633Z,41.98
2022-07-26T11:42:08.668Z,45.24
2022-07-26T11:43:08.742Z,43.84
2022-07-26T11:44:08.639Z,41.56
2022-07-26T11:45:08.601Z,42.37
2022-07-26T11:46:08.642Z,41.84
2022-07-26T11:47:08.610Z,41.02
2022-07-26T11:48:08.597Z,40.90
2022-07-26T11:49:08.592Z,43.44
2022-07-26T11:50:16.797Z,45.14
2022-07-26T11:51:09.524Z,46.78
2022-07-26T11:52:08.546Z,46.11
2022-07-26T11:53:08.521Z,46.93
2022-07-26T11:54:08.877Z,46.66
2022-07-26T11:55:08.489Z,47.25
2022-07-26T11:56:08.459Z,47.44
2022-07-26T11:57:08.533Z,49.30
2022-07-26T11:58:08.549Z,49.60
2022-07-26T11:59:08.557Z,47.32
2022-07-26T12:00:08.437Z,45.94
2022-07-26T12:01:08.481Z,44.61
2022-07-26T12:02:08.453Z,47.23
2022-07-26T12:03:08.496Z,47.26
2022-07-26T12:04:09.164Z,44.33
2022-07-26T12:05:08.465Z,44.23
2022-07-26T12:06:08.406Z,45.61
2022-07-26T12:07:08.400Z,44.76
2022-07-26T12:08:08.428Z,44.69
2022-07-26T12:09:08.355Z,46.04
2022-07-26T12:10:08.356Z,44.47
2022-07-26T12:11:08.410Z,45.01
2022-07-26T12:12:08.432Z,46.79
2022-07-26T12:13:08.316Z,43.48
2022-07-26T12:14:08.616Z,43.04
2022-07-26T12:15:08.281Z,41.80
2022-07-26T12:16:08.303Z,39.39
2022-07-26T12:17:08.269Z,41.21
2022-07-26T12:18:08.363Z,41.07
2022-07-26T12:19:08.221Z,38.12
2022-07-26T12:20:08.259Z,42.39
2022-07-26T12:21:08.887Z,41.92
2022-07-26T12:22:08.217Z,41.80
2022-07-26T12:23:08.275Z,41.53
2022-07-26T12:24:08.528Z,43.27
2022-07-26T12:25:08.189Z,41.61
2022-07-26T12:26:10.111Z,44.27
2022-07-26T12:27:08.153Z,44.29
2022-07-26T12:28:08.219Z,44.81
2022-07-26T12:29:08.155Z,44.43
2022-07-26T12:30:08.137Z,47.00
2022-07-26T12:31:08.204Z,46.31
2022-07-26T12:32:12.293Z,44.46
2022-07-26T12:33:08.225Z,46.16
2022-07-26T12:34:08.634Z,46.63
2022-07-26T12:35:08.091Z,45.98
2022-07-26T12:36:08.064Z,45.68
2022-07-26T12:37:08.050Z,45.19
2022-07-26T12:38:08.106Z,46.01
2022-07-26T12:39:08.016Z,47.19
2022-07-26T12:40:08.155Z,46.03
2022-07-26T12:41:08.018Z,47.12
2022-07-26T12:42:09.030Z,46.94
2022-07-26T12:43:08.105Z,47.24
2022-07-26T12:44:08.717Z,47.16
2022-07-26T12:45:07.976Z,48.47
2022-07-26T12:46:08.030Z,48.40
2022-07-26T12:47:07.955Z,48.40
2022-07-26T12:48:07.971Z,48.62
2022-07-26T12:49:08.020Z,50.81
2022-07-26T12:50:07.910Z,48.94
2022-07-26T12:51:07.953Z,49.74
2022-07-26T12:52:07.914Z,51.75
2022-07-26T12:53:07.928Z,52.04